Beckley, WV

4:05 PM EST on February 20, 2017 (GMT -0500)
Raleigh County Memorial | | Change Station

Elev 2503 ft 37.79 °N, 81.12 °W | Updated 14 minutes ago

Partly Cloudy
Partly Cloudy
67 °F
Feels Like 67 °F
N
4
Wind Variable Wind from SSE

Today
High -- | Low -- °F
--% Chance of Precip.
Yesterday
High -- | Low -- °F
Precip. -- in
Pressure 30.17 in
Visibility 10.0 miles
Clouds Clear
Dew Point 10 °F
Humidity 11%
Rainfall 0.00 in
Snow Depth Not available.
7:08 AM 6:09 PM
Waning Crescent, 31% visible
METAR KBKW 202051Z AUTO 15003KT 10SM CLR 19/M12 A3019 RMK AO2 SLP217 T01941122 55012 $
Pressure 30.17 in
Visibility 10.0 miles
Clouds Clear
Dew Point 10 °F
Humidity 11%
Rainfall 0.00 in
Snow Depth Not available.
7:08 AM 6:09 PM
Waning Crescent, 31% visible
METAR KBKW 202051Z AUTO 15003KT 10SM CLR 19/M12 A3019 RMK AO2 SLP217 T01941122 55012 $

Get Your Daily Forecast Email!

Thanks for signing up!

Be on the lookout for a verification email in your inbox.

You'll start receiving the daily forecast at 8 AM.

×

10-Day Weather Forecast

Almanac

Astronomy

Feb. 20, 2017 Rise Set
Actual Time
Civil Twilight
Nautical Twilight
Astronomical Twilight
Moon
Length of Visible Light
Length of Day
Tomorrow will be .
, % of the Moon is Illuminated

Today's Extremes

State Highs State Lows

Community

WunderPhotos

Upload Photos

1,962,540 photos uploaded!

WunderBlog® & News

Nearby

Air Quality

  Air Quality AQ Index Pollutant
Not available.

Snow Depth

Station Depth Elevation

Earthquake Activity

City Distance Mag. Time & Date
Minimum magnitude displayed is 2.5.

Coastal Water Temperatures

Place Temperature

Stations

Nearby Weather Stations

Station Location Temp. Windchill Dew Point Humidity Wind Precip. Elev Updated Type
                   

Watches & Warnings

There are currently no watches in effect.